sim
Sign-in with your pilot id or email,
or register
Callsign
Passwort

Schedule Details

Flight Number: OEF9007
Departure: Kolkata International Airport (VECC) at 10:20
Arrival: Mumbai Chhatrapati Shivaji International Airport (VABB) at 12:50

Weather Information
Getting current METAR information for VECC 152230Z 35004KT 2600 HZ FEW020 SCT100 17/16 Q1015 NOSIG
Getting current METAR information for VABB 152230Z 36004KT 2100 HZ NSC 24/20 Q1011 NOSIG

Schedule Frequency

Route Map